Date,TemperatureHighF,TemperatureAvgF,TemperatureLowF,DewpointHighF,DewpointAvgF,DewpointLowF,HumidityHigh,HumidityAvg,HumidityLow,PressureMaxIn,PressureMinIn,WindSpeedMaxMPH,WindSpeedAvgMPH,GustSpeedMaxMPH,PrecipitationSumIn
2012-1-1,79.5,66.0,56.1,60.2,55.1,50.7,86,70,43,30.27,30.15,8,1,10,0.00
2012-1-2,74.5,62.7,54.1,62.8,50.5,38.3,88,66,44,30.24,30.09,9,0,9,0.00
2012-1-3,57.7,51.4,41.0,40.6,29.0,19.2,65,43,27,30.41,30.21,8,2,9,0.00
2012-1-4,62.8,47.9,35.4,33.9,26.1,19.7,54,43,31,30.44,30.29,6,0,8,0.00
2012-1-5,68.0,52.3,37.9,42.4,33.2,24.6,71,50,29,30.32,30.21,5,0,6,0.00
2012-1-6,72.9,56.9,44.6,50.8,43.6,37.2,82,63,37,30.24,30.12,6,0,6,0.00
2012-1-7,74.5,59.5,48.4,52.1,46.2,42.4,83,64,37,30.21,30.12,8,1,9,0.00
2012-1-8,79.3,63.2,50.5,53.8,48.2,44.3,80,61,33,30.24,30.12,9,1,9,0.00
2012-1-9,81.7,66.5,55.6,58.2,52.5,48.1,82,63,37,30.21,30.06,9,1,10,0.00
2012-1-10,81.0,66.3,55.8,59.0,53.5,49.7,84,65,36,30.09,29.94,10,1,10,0.00
2012-1-11,73.4,65.9,61.9,64.9,58.9,55.3,86,78,70,29.97,29.76,14,2,17,0.00
2012-1-12,78.1,68.8,61.5,62.8,57.8,53.0,88,70,43,30.00,29.85,11,2,11,0.00
2012-1-13,73.2,64.3,54.7,60.2,49.8,36.6,88,61,40,30.21,29.97,7,1,7,0.00
2012-1-14,65.1,55.7,46.2,40.0,33.8,28.1,59,45,27,30.35,30.21,10,2,10,0.00
2012-1-15,72.5,53.8,38.8,39.3,32.3,27.7,66,46,27,30.39,30.24,10,1,10,0.00
2012-1-16,75.7,60.3,49.5,47.5,41.4,31.1,66,51,35,30.33,30.21,13,2,15,0.00
2012-1-17,78.1,63.0,50.9,53.8,48.5,43.4,80,61,40,30.24,30.06,14,1,14,0.00
2012-1-18,78.4,65.6,54.7,58.2,53.0,48.1,81,65,44,30.09,29.91,11,1,12,0.00
2012-1-19,77.0,65.4,56.5,59.7,46.0,33.5,84,54,24,30.09,29.91,9,1,10,0.00
2012-1-20,79.7,63.3,51.3,50.4,44.3,36.3,72,52,31,30.12,30.00,10,1,11,0.00
2012-1-21,79.5,64.8,53.2,56.0,50.9,46.2,80,63,38,30.06,29.94,10,2,11,0.00
2012-1-22,82.8,66.8,54.9,58.0,51.5,48.0,82,61,31,30.03,29.97,9,1,11,0.00
2012-1-23,82.6,69.0,58.5,62.8,55.7,50.2,86,65,41,30.03,29.94,10,1,11,0.00
2012-1-24,84.6,70.3,59.7,64.0,57.1,53.9,87,65,37,30.09,29.97,9,1,9,0.00
2012-1-25,84.9,71.0,61.9,64.6,58.0,52.7,89,66,36,30.06,29.97,12,2,13,0.00
2012-1-26,83.7,72.0,63.9,64.8,60.2,56.5,89,69,40,30.00,29.88,17,3,18,0.00
2012-1-27,77.0,70.6,67.3,68.2,62.6,59.4,89,76,60,29.97,29.85,14,2,16,0.04
2012-1-28,79.0,69.2,64.2,59.4,55.4,50.8,76,63,43,30.09,29.97,8,0,10,0.00
2012-1-29,79.7,67.5,61.2,52.8,48.6,44.0,69,53,33,30.18,30.06,9,1,10,0.00
2012-1-30,78.6,65.6,56.1,52.3,48.1,44.6,73,55,38,30.24,30.12,11,4,13,0.00
2012-1-31,82.9,68.8,59.2,53.4,49.8,45.9,70,53,32,30.21,30.09,13,3,13,0.00
2012-2-1,85.5,70.2,60.6,59.7,55.8,51.5,78,62,37,30.15,30.00,11,1,12,0.00
2012-2-2,81.0,70.0,61.5,64.4,58.6,55.4,83,68,43,30.06,29.97,8,0,8,0.00
2012-2-3,81.1,71.6,65.8,62.7,60.2,56.8,82,68,51,30.09,30.00,9,2,13,0.00
2012-2-4,86.5,72.9,65.7,62.5,59.8,55.8,82,66,39,30.06,29.94,14,3,15,0.00
2012-2-5,80.6,72.5,65.8,65.2,62.1,60.2,86,71,51,29.97,29.88,8,0,8,0.00
2012-2-6,80.1,71.6,66.7,67.3,62.7,59.7,86,74,58,29.97,29.88,10,1,13,0.35
2012-2-7,84.7,73.0,66.9,66.9,64.0,61.9,91,75,50,29.94,29.85,8,1,8,0.00
2012-2-8,82.2,71.4,66.2,63.0,59.9,52.6,83,68,46,30.00,29.88,7,1,8,0.00
2012-2-9,79.9,69.2,61.2,58.0,52.0,46.9,70,55,41,30.06,29.94,11,2,11,0.00
2012-2-10,86.0,72.2,64.9,64.6,61.4,56.9,81,70,47,30.00,29.80,10,2,11,0.00
2012-2-11,74.1,65.1,54.9,63.3,53.1,38.5,88,67,42,30.03,29.80,9,1,10,0.16
2012-2-12,61.9,49.5,37.4,38.5,25.5,17.4,57,40,27,30.24,30.03,10,3,13,0.00
2012-2-13,73.9,54.6,35.8,43.5,35.5,23.6,73,51,33,30.18,30.00,11,1,11,0.00
2012-2-14,80.4,65.0,52.5,55.8,49.8,43.0,77,60,36,30.03,29.97,13,2,13,0.00
2012-2-15,85.3,68.6,56.8,59.6,54.5,50.6,83,64,31,30.12,30.00,10,1,10,0.00
2012-2-16,82.8,64.5,60.1,62.8,56.1,53.9,85,75,43,30.09,29.97,14,1,14,0.00
2012-2-17,83.3,71.5,64.6,64.9,61.1,59.0,88,71,46,30.00,29.91,11,2,11,0.00
2012-2-18,83.1,71.7,64.6,64.8,61.4,58.9,88,72,48,29.94,29.80,11,2,13,0.00
2012-2-19,82.4,73.1,67.1,69.8,65.2,56.8,92,77,62,29.88,29.77,20,4,20,0.00
2012-2-20,80.1,68.8,60.3,58.2,49.2,43.3,75,51,32,30.09,29.85,8,1,10,0.00
2012-2-21,83.7,67.5,55.8,56.0,50.9,44.0,74,57,33,30.12,30.00,10,2,13,0.00
2012-2-22,81.9,70.3,60.3,61.6,57.1,53.3,80,65,39,30.03,29.85,13,2,14,0.00
2012-2-23,84.2,72.7,64.4,66.7,63.4,60.1,90,74,48,29.91,29.83,15,3,15,0.00
2012-2-24,86.5,74.8,65.8,71.1,64.9,60.0,94,74,45,29.94,29.85,16,3,19,0.00
2012-2-25,84.9,72.4,63.5,68.7,57.6,43.3,90,63,35,30.09,29.91,10,2,11,0.00
2012-2-26,84.6,70.6,61.7,61.9,54.6,42.8,78,58,42,30.15,30.06,12,3,17,0.04
2012-2-27,91.9,75.8,68.0,66.3,63.6,61.4,84,68,37,30.18,30.06,13,2,13,0.24
2012-2-28,90.5,75.8,66.6,68.1,62.5,55.5,89,67,33,30.15,30.03,8,1,10,0.00
2012-2-29,89.2,75.5,66.4,66.2,62.1,58.3,87,66,39,30.12,30.00,11,2,13,0.00
2012-3-1,86.5,71.4,67.3,67.2,62.9,58.1,86,76,41,30.03,29.91,14,1,14,0.00
2012-3-2,86.4,74.4,65.5,67.2,63.1,60.2,87,70,43,29.97,29.85,15,3,17,0.00
2012-3-3,86.5,75.6,67.3,69.3,66.0,63.8,89,74,49,29.88,29.74,20,3,22,0.00
2012-3-4,75.7,69.1,55.0,70.4,50.1,29.2,96,56,26,30.12,29.68,18,4,19,0.00
2012-3-5,80.1,62.9,50.0,40.7,34.2,29.9,56,36,21,30.27,30.12,9,1,10,0.00
2012-3-6,83.8,60.1,51.3,54.3,42.8,39.5,68,55,30,30.30,30.18,15,1,20,0.00
2012-3-7,86.0,71.7,62.2,58.8,55.1,52.8,74,58,37,30.24,30.12,14,3,17,0.00
2012-3-8,87.8,73.6,65.7,64.0,60.8,58.7,85,66,40,30.15,30.03,15,3,17,0.00
2012-3-9,88.3,74.9,66.0,65.8,61.7,57.8,88,66,39,30.09,29.97,11,2,13,0.00
2012-3-10,87.8,76.5,67.6,64.2,61.5,55.7,82,62,35,30.09,30.00,8,1,8,0.00
2012-3-11,90.7,75.5,67.8,64.4,61.4,56.9,83,64,34,30.15,30.06,12,2,14,0.00
2012-3-12,88.7,74.4,66.6,61.0,56.9,49.3,79,57,33,30.18,30.06,15,3,15,0.00
2012-3-13,89.8,74.0,63.0,58.8,53.9,50.1,79,53,28,30.15,30.03,10,1,12,0.00
2012-3-14,91.6,74.1,61.7,58.9,54.6,51.1,78,53,29,30.12,30.00,10,2,12,0.00
2012-3-15,90.3,73.2,64.4,63.1,57.9,53.4,77,61,30,30.12,30.03,11,2,15,0.12
2012-3-16,90.9,74.6,64.4,63.0,57.7,50.1,84,60,28,30.12,30.00,9,1,10,0.00
2012-3-17,91.6,74.4,61.7,60.7,53.9,45.3,81,53,22,30.12,30.00,10,1,13,0.00
2012-3-18,90.9,73.8,61.2,59.1,54.5,51.1,78,54,29,30.12,30.00,12,2,15,0.00
2012-3-19,90.5,75.0,63.9,59.7,54.5,48.6,79,53,27,30.09,29.94,13,2,13,0.00
2012-3-20,91.8,74.7,64.2,60.5,55.3,50.6,75,53,28,30.00,29.88,11,2,13,0.00
2012-3-21,92.8,75.5,65.3,64.9,59.9,56.0,82,61,31,30.03,29.91,13,2,15,0.00
2012-3-22,92.7,77.9,68.5,64.8,62.2,57.2,83,61,32,30.03,29.94,15,2,15,0.00
2012-3-23,90.7,72.4,67.3,63.4,59.4,53.6,80,66,31,30.03,29.91,10,1,10,0.00
2012-3-24,89.8,76.6,67.8,63.2,60.9,56.6,79,60,34,29.94,29.83,13,3,14,0.00
2012-3-25,86.2,74.4,67.3,67.6,61.5,54.4,85,66,34,29.88,29.77,16,3,18,0.20
2012-3-26,89.1,73.5,61.7,59.8,52.2,46.0,79,52,24,29.91,29.83,8,0,12,0.00
2012-3-27,93.9,74.9,61.7,58.4,52.1,48.6,68,47,24,30.06,29.88,10,2,13,0.00
2012-3-28,94.8,76.3,63.5,61.2,54.3,49.0,72,50,23,30.06,29.94,13,2,13,0.08
2012-3-29,91.9,74.8,63.5,61.5,56.8,51.9,81,57,28,30.00,29.85,11,1,13,0.04
2012-3-30,91.4,75.2,63.0,59.5,56.0,51.8,73,54,27,29.97,29.88,13,2,13,0.00
2012-3-31,87.1,75.5,65.8,67.5,62.4,57.1,78,65,45,29.91,29.80,16,3,17,0.00
2012-4-1,89.8,77.0,66.9,66.8,61.1,55.1,82,61,32,29.85,29.77,12,1,13,0.00
2012-4-2,90.7,76.6,65.7,66.3,59.2,52.5,82,59,29,29.85,29.77,10,1,11,0.00
2012-4-3,93.9,78.5,65.1,63.0,56.1,49.2,80,51,27,29.88,29.80,11,1,11,0.00
2012-4-4,91.6,80.1,67.3,65.5,59.1,50.8,77,52,33,29.88,29.74,17,2,17,0.00
2012-4-5,89.6,78.0,69.1,67.2,63.3,59.8,79,62,40,29.83,29.65,14,3,14,0.00
2012-4-6,89.4,78.7,71.6,68.6,61.2,50.5,76,57,34,29.83,29.65,13,3,16,0.00
2012-4-7,71.6,71.6,71.6,51.5,51.5,51.5,49,49,49,29.83,29.83,6,1,6,0.00
2012-4-8,71.6,71.6,71.6,51.5,51.5,51.5,49,49,49,29.83,29.83,4,4,4,0.00
2012-4-9,91.6,75.0,62.1,55.8,51.7,47.2,67,47,23,30.00,29.83,10,1,13,0.00
2012-4-10,88.7,72.7,64.4,59.7,55.9,53.2,70,57,32,29.94,29.88,10,1,10,0.00
2012-4-11,89.2,75.4,65.5,60.0,56.1,51.2,74,53,30,29.97,29.88,13,1,13,0.00
2012-4-12,91.2,76.0,63.9,58.6,53.7,47.0,75,49,27,29.97,29.88,13,1,13,0.00
2012-4-13,91.6,77.3,65.7,62.6,56.1,48.7,77,51,26,30.00,29.91,11,1,11,0.00
2012-4-14,85.3,74.2,68.5,63.5,59.1,55.1,79,61,40,30.09,29.97,17,3,17,0.00
2012-4-15,89.6,75.8,65.3,56.8,54.2,50.2,71,50,30,30.09,30.00,12,3,13,0.00
2012-4-16,95.0,76.1,63.5,57.6,53.1,47.3,70,48,23,30.09,29.97,11,3,13,0.00
2012-4-17,95.7,77.8,64.9,58.3,54.1,47.7,68,47,21,30.06,29.91,13,2,13,0.00
2012-4-18,90.0,77.2,66.6,62.9,57.7,52.8,70,53,32,30.00,29.85,16,2,16,0.00
2012-4-19,90.3,79.0,70.5,65.2,61.9,56.4,74,58,33,29.88,29.77,14,3,15,0.00
2012-4-20,91.2,79.5,71.1,66.6,63.5,60.4,79,60,38,29.83,29.71,13,3,16,0.00
2012-4-21,76.8,72.0,68.9,65.1,62.6,58.8,84,73,57,29.80,29.53,13,2,14,0.31
2012-4-22,83.8,73.2,66.0,66.2,60.0,51.9,95,66,40,29.68,29.47,17,3,20,1.02
2012-4-23,81.5,71.4,64.4,52.7,46.4,43.2,56,42,31,29.83,29.68,14,1,14,0.00
2012-4-24,83.3,67.9,58.3,45.1,39.9,34.4,61,37,23,29.97,29.83,10,1,11,0.00
2012-4-25,88.7,68.8,53.6,46.1,42.5,39.2,66,41,22,30.03,29.94,11,1,13,0.00
2012-4-26,91.9,73.2,58.5,54.5,50.6,45.4,71,48,26,30.06,29.94,10,2,12,0.00
2012-4-27,96.8,77.1,61.9,59.7,55.2,52.8,73,50,27,30.03,29.91,10,1,10,0.00
2012-4-28,93.7,78.0,69.1,67.7,63.4,58.8,79,62,32,29.97,29.88,14,1,15,0.16
2012-4-29,81.9,74.8,70.3,66.2,64.5,62.5,81,71,57,29.97,29.88,13,2,13,0.00
2012-4-30,89.4,76.6,69.3,66.1,61.8,57.5,77,62,38,29.97,29.88,16,4,19,0.00
2012-5-1,91.8,78.2,72.1,69.3,64.6,60.9,79,64,39,29.94,29.85,15,4,15,0.00
2012-5-2,96.1,80.3,71.1,67.4,63.3,56.9,84,59,29,29.97,29.88,12,3,13,0.00
2012-5-3,96.8,80.8,70.0,65.8,62.6,57.0,81,57,28,30.00,29.91,12,3,12,0.00
2012-5-4,80.2,73.8,71.6,66.1,63.5,62.2,76,70,61,30.00,29.91,8,1,9,0.00
2012-5-9,91.8,83.9,75.6,69.1,65.9,62.6,80,57,40,29.77,29.71,14,4,15,0.16
2012-5-10,94.8,80.9,72.9,70.2,65.6,59.9,86,62,35,29.83,29.68,13,2,15,0.00
2012-5-11,99.5,79.9,67.6,67.9,61.8,56.3,77,57,26,30.00,29.80,12,2,14,2.24
2012-5-12,97.0,80.9,70.7,67.8,62.3,57.6,81,56,29,30.03,29.94,14,2,17,0.00
2012-5-13,96.1,78.8,69.6,67.7,62.3,54.6,80,60,27,30.03,29.88,12,2,13,2.64
2012-5-14,94.1,80.3,71.6,70.3,65.5,60.9,86,64,37,29.97,29.83,13,2,13,0.00
2012-5-15,93.4,79.3,72.0,70.5,66.5,59.5,80,67,36,29.91,29.83,13,1,14,0.16
2012-5-16,83.5,76.0,71.4,72.0,66.5,62.0,88,74,50,29.94,29.83,6,0,6,0.08
2012-5-17,92.1,78.6,71.4,70.5,67.5,63.2,88,70,41,29.88,29.77,11,2,12,0.43
2012-5-18,97.0,81.2,72.1,68.1,64.8,60.7,82,60,32,29.85,29.77,11,1,11,0.00
2012-5-19,94.8,79.2,71.1,68.2,64.5,59.1,81,64,32,29.88,29.77,11,1,11,0.51
2012-5-20,96.4,80.5,70.0,68.2,63.9,57.0,86,61,28,29.88,29.80,10,1,10,0.00
2012-5-21,98.2,81.2,69.8,64.0,60.9,56.2,76,53,29,29.91,29.80,10,1,10,0.00
2012-5-22,99.7,82.1,69.1,64.5,57.9,50.2,71,47,21,29.88,29.77,10,1,10,0.00
2012-5-23,98.6,81.9,72.5,68.9,64.4,58.7,78,59,29,29.83,29.71,8,1,13,0.12
2012-5-24,100.0,82.4,72.3,69.2,66.4,62.9,83,61,32,29.83,29.71,13,1,13,0.00
2012-5-25,101.8,83.6,73.4,71.3,66.7,61.0,80,60,28,29.94,29.77,9,1,10,0.08
2012-5-26,100.6,83.0,74.1,70.9,66.0,56.8,83,61,26,29.94,29.83,12,1,12,0.24
2012-5-27,92.3,81.3,72.1,71.4,67.2,62.9,84,64,42,29.88,29.77,12,3,14,0.00
2012-5-28,94.8,84.2,77.5,69.6,67.3,62.3,74,58,38,29.85,29.77,14,4,14,0.00
2012-5-29,98.6,83.8,74.5,70.9,66.5,59.0,81,59,30,29.88,29.80,12,3,13,0.04
2012-5-30,96.6,83.9,76.8,69.9,66.4,61.2,76,58,33,29.85,29.74,13,3,13,0.00
2012-5-31,91.6,81.7,74.7,70.2,67.1,64.4,80,62,43,29.85,29.77,13,2,13,0.00
2012-6-1,85.6,78.5,74.7,71.4,68.3,65.3,85,71,57,29.85,29.77,15,3,15,0.39
2012-6-2,92.3,81.5,74.8,73.4,67.9,61.4,88,66,39,29.88,29.80,10,2,12,0.00
2012-6-3,99.3,83.6,72.9,71.0,64.6,55.7,83,57,27,29.94,29.85,11,1,11,0.00
2012-6-4,91.4,82.0,73.2,70.2,66.6,62.9,80,61,42,29.91,29.80,13,2,13,0.00
2012-6-5,89.1,82.6,79.2,72.9,70.3,67.3,78,67,49,29.83,29.71,12,2,14,0.00
2012-6-6,86.5,81.0,74.8,72.3,70.0,64.2,80,70,58,29.85,29.77,15,2,17,0.00
2012-6-7,91.8,82.7,77.0,72.7,69.5,64.3,79,65,47,29.88,29.80,14,3,15,0.00
2012-6-8,92.3,83.2,76.5,74.2,71.3,68.1,81,68,49,29.88,29.80,11,2,15,0.04
2012-6-9,96.3,82.2,71.1,72.6,69.1,65.9,96,68,39,29.94,29.83,11,2,13,0.63
2012-6-10,98.4,84.3,76.1,74.4,70.4,66.0,86,65,37,30.03,29.88,15,1,17,0.04
2012-6-11,105.3,86.3,75.7,72.1,67.6,61.6,84,58,26,30.03,29.94,10,1,10,0.00
2012-6-12,100.6,84.6,72.7,70.1,64.0,58.9,75,53,27,29.97,29.85,8,1,8,0.04
2012-6-13,98.4,83.8,73.4,69.9,66.4,63.6,74,58,35,29.88,29.80,10,2,11,0.00
2012-6-14,99.7,85.5,76.6,71.9,67.4,61.9,79,57,32,29.91,29.80,13,1,13,0.00
2012-6-15,98.4,82.8,73.2,68.4,64.8,60.0,77,57,31,29.94,29.83,11,1,11,0.12
2012-6-16,96.1,81.6,73.8,68.4,65.0,58.1,80,60,34,29.94,29.85,10,1,13,0.12
2012-6-17,100.4,82.5,71.4,64.9,59.9,52.2,77,50,22,29.94,29.83,11,2,13,0.00
2012-6-18,103.3,83.0,70.5,62.8,58.2,51.6,70,46,21,29.91,29.85,16,2,16,0.00
2012-6-19,92.8,80.9,72.5,65.9,61.3,57.3,69,53,35,29.94,29.85,11,2,14,0.00
2012-6-20,86.4,79.6,74.8,72.9,68.0,64.7,79,68,55,29.91,29.83,12,2,12,0.04
2012-6-21,93.0,80.3,74.5,70.9,68.8,64.7,83,69,41,29.88,29.74,13,2,14,0.16
2012-6-22,82.8,77.9,74.7,72.7,70.8,69.4,88,79,66,29.85,29.71,8,1,10,0.12
2012-6-23,79.5,75.8,73.2,75.1,71.8,69.5,92,87,78,29.85,29.74,9,2,11,1.61
2012-6-24,83.1,78.0,73.8,76.7,73.0,68.9,95,85,71,29.83,29.68,24,5,25,2.28
2012-6-25,85.1,80.4,74.8,73.2,71.2,68.1,85,74,63,29.71,29.62,22,7,26,0.24
2012-6-26,89.8,80.3,76.1,74.6,71.8,69.8,86,76,53,29.65,29.56,27,8,28,0.31
2012-6-27,95.5,82.6,77.0,74.2,70.6,64.8,87,68,40,29.91,29.65,18,4,18,0.51
2012-6-28,103.8,84.6,73.8,69.8,67.0,60.9,80,59,29,29.97,29.88,8,1,10,0.00
2012-6-29,102.7,84.5,73.6,68.9,64.7,58.1,79,55,26,29.97,29.85,8,1,10,0.00
2012-6-30,102.6,84.8,75.2,71.4,67.7,63.6,79,59,31,29.91,29.85,11,2,11,0.00
2012-7-1,103.1,85.6,74.8,72.2,66.7,61.4,81,57,28,30.00,29.88,12,1,12,0.00
2012-7-2,102.2,86.1,77.0,72.0,67.1,61.1,78,56,29,30.03,29.88,10,2,11,0.24
2012-7-3,101.1,81.8,74.3,69.2,66.8,60.2,80,63,28,29.97,29.88,10,0,13,0.12
2012-7-4,91.6,84.3,73.4,73.0,69.3,67.7,87,63,49,30.00,29.91,9,0,12,0.12
2012-7-5,91.0,91.0,91.0,69.2,69.2,69.2,49,49,49,29.97,29.88,8,0,10,1.22
2012-7-6,91.0,91.0,91.0,69.2,69.2,69.2,49,49,49,29.97,29.88,9,0,9,0.16
2012-7-7,91.0,91.0,91.0,69.2,69.2,69.2,49,49,49,29.97,29.91,12,0,17,0.47
2012-7-8,91.0,91.0,91.0,69.2,69.2,69.2,49,49,49,30.00,29.88,10,1,13,0.00
2012-7-9,91.0,91.0,91.0,69.2,69.2,69.2,49,49,49,29.94,29.85,8,1,8,0.47
2012-7-10,91.0,91.0,91.0,69.2,69.2,69.2,49,49,49,29.94,29.83,11,1,15,0.31
2012-7-11,91.0,91.0,91.0,69.2,69.2,69.2,49,49,49,29.94,29.85,8,1,9,0.08
2012-7-12,91.0,91.0,91.0,69.2,69.2,69.2,49,49,49,29.91,29.85,10,0,11,1.85
2012-7-13,91.0,91.0,91.0,69.2,69.2,69.2,49,49,49,29.94,29.88,11,1,15,2.44
2012-7-14,91.0,91.0,91.0,69.2,69.2,69.2,49,49,49,29.97,29.88,10,1,14,0.12
2012-7-15,91.0,91.0,91.0,69.2,69.2,69.2,49,49,49,30.00,29.91,10,1,10,0.59
2012-7-16,91.0,91.0,91.0,69.2,69.2,69.2,49,49,49,29.97,29.88,8,1,10,0.04
2012-7-17,91.0,85.2,0.0,69.2,64.8,0.0,49,46,49,29.97,29.88,8,0,9,0.20
2012-7-18,0.0,0.0,0.0,0.0,0.0,0.0,0,0,100,30.03,29.91,11,1,12,0.00
2012-7-19,0.0,0.0,0.0,0.0,0.0,0.0,0,0,100,30.06,29.97,9,1,9,0.00
2012-7-20,0.0,0.0,0.0,0.0,0.0,0.0,0,0,100,30.03,29.91,14,1,14,0.12
2012-7-21,0.0,0.0,0.0,0.0,0.0,0.0,0,0,100,30.00,29.91,11,1,12,0.20
2012-7-22,0.0,0.0,0.0,0.0,0.0,0.0,0,0,100,30.03,29.94,10,0,12,0.35
2012-7-23,0.0,0.0,0.0,0.0,0.0,0.0,0,0,100,30.06,30.00,10,1,13,0.00
2012-7-24,0.0,0.0,0.0,0.0,0.0,0.0,0,0,100,30.03,29.91,11,1,11,0.00
2012-7-25,0.0,0.0,0.0,0.0,0.0,0.0,0,0,100,29.97,29.88,10,2,11,0.00
2012-7-26,0.0,0.0,0.0,0.0,0.0,0.0,0,0,100,29.94,29.88,10,1,10,0.00
2012-7-27,0.0,0.0,0.0,0.0,0.0,0.0,0,0,100,30.00,29.88,10,0,12,0.00
2012-7-28,0.0,0.0,0.0,0.0,0.0,0.0,0,0,100,30.00,29.94,8,0,11,0.00
2012-7-29,0.0,0.0,0.0,0.0,0.0,0.0,0,0,100,30.00,30.00,0,0,6,0.00
2012-7-30,0.0,0.0,0.0,0.0,0.0,0.0,0,0,100,29.88,29.88,0,0,0,0.00
2012-8-4,102.9,92.2,79.2,75.7,72.4,67.9,86,55,36,29.94,29.85,10,1,13,16.73
2012-8-5,99.5,82.1,75.4,78.9,74.8,71.5,92,80,44,29.97,29.91,11,1,12,1.38
2012-8-6,95.2,80.5,75.7,79.9,75.6,73.6,94,86,57,29.97,29.88,11,1,11,1.46
2012-8-7,97.9,84.3,75.2,82.1,76.4,73.0,94,79,53,29.94,29.85,8,1,9,0.00
2012-8-8,100.8,84.3,76.5,79.8,75.2,70.4,91,76,40,29.94,29.85,9,1,9,0.51
2012-8-9,99.7,82.9,76.1,79.9,75.2,72.2,91,79,45,29.91,29.80,13,0,13,0.28
2012-8-10,96.8,80.9,74.3,78.5,73.4,69.9,92,80,44,29.91,29.83,14,1,19,0.04
2012-8-11,92.1,79.9,75.7,78.7,74.6,72.3,92,84,62,29.94,29.83,9,1,10,0.00
2012-8-12,83.3,77.8,75.4,79.4,74.7,71.9,93,90,84,29.97,29.85,9,0,9,0.28
2012-8-13,99.7,83.2,74.5,81.2,75.7,72.6,94,80,51,29.97,29.88,8,0,12,0.08
2012-8-14,96.4,83.4,75.9,79.6,74.9,72.5,92,77,50,29.97,29.85,11,1,11,0.28
2012-8-15,97.2,80.3,75.0,80.9,75.0,72.2,92,85,50,29.94,29.85,9,0,9,0.31
2012-8-16,97.2,84.1,76.8,80.6,76.3,74.2,92,79,54,29.97,29.88,8,0,10,0.00
2012-8-17,90.1,81.6,78.4,79.4,76.6,74.0,92,85,66,29.94,29.85,10,0,13,0.67
2012-8-18,90.0,79.2,76.3,79.6,75.4,73.8,93,88,67,29.91,29.80,10,0,10,0.08
2012-8-19,96.4,83.9,76.5,80.6,75.8,74.0,93,78,54,29.91,29.83,15,2,17,0.00
2012-8-20,98.2,85.7,77.2,79.7,75.5,72.3,90,73,51,29.91,29.83,15,3,15,0.00
2012-8-21,98.8,85.4,76.5,78.1,74.5,69.9,89,72,47,30.00,29.85,15,3,17,0.55
2012-8-22,95.9,78.2,74.3,77.4,72.5,70.3,91,84,48,30.03,29.91,11,0,11,0.12
2012-8-23,102.9,83.3,73.6,75.4,70.9,65.0,90,69,36,30.00,29.88,15,0,15,0.00
2012-8-24,100.8,85.1,75.4,77.8,71.9,67.3,89,67,38,29.94,29.83,13,2,13,0.00
2012-8-25,87.8,81.3,75.4,74.8,72.3,68.6,84,75,62,29.91,29.80,10,2,11,0.00
2012-8-26,84.9,79.0,75.2,77.3,75.1,73.2,95,88,76,29.83,29.59,14,4,14,1.38
2012-8-27,89.6,80.6,77.2,81.2,77.3,75.3,94,90,71,29.80,29.56,15,5,20,0.79
2012-8-28,93.7,83.4,78.3,81.2,77.8,74.9,94,84,65,29.88,29.77,17,4,17,0.55
2012-8-29,93.0,83.4,77.5,79.0,76.2,74.0,94,80,56,29.91,29.83,13,2,17,0.00
2012-8-30,99.0,84.0,77.0,79.3,75.6,72.8,92,78,51,30.00,29.85,8,1,10,0.04
2012-8-31,95.4,81.3,75.9,79.2,75.7,73.4,92,84,54,30.06,29.97,9,1,9,0.00
2012-9-1,99.5,88.8,80.1,74.9,70.4,66.6,78,56,42,30.03,29.91,8,1,10,0.00
2012-9-2,99.9,83.9,73.8,73.4,69.6,63.5,88,66,38,29.97,29.85,9,1,9,0.00
2012-9-3,99.3,83.5,73.0,74.3,70.1,61.5,88,67,39,29.97,29.85,8,0,8,0.00
2012-9-4,97.3,83.8,75.4,76.9,73.4,70.8,90,73,47,29.94,29.85,12,2,13,0.00
2012-9-5,96.4,83.6,75.9,77.0,74.0,72.2,90,74,48,29.91,29.83,15,3,15,1.26
2012-9-6,93.6,81.2,73.8,78.7,73.7,70.7,91,79,56,29.91,29.85,12,1,13,0.08
2012-9-7,94.6,81.4,74.8,78.4,73.8,69.3,91,79,49,29.91,29.83,11,1,12,0.00
2012-9-8,94.8,83.5,75.6,77.7,74.5,72.3,91,76,55,29.88,29.80,13,2,13,0.00
2012-9-9,91.4,84.3,79.9,77.7,75.6,73.9,86,76,62,29.88,29.80,16,4,17,0.00
2012-9-10,88.9,81.1,78.3,79.8,76.2,73.9,91,85,66,29.91,29.85,11,1,13,0.04
2012-9-11,94.1,82.2,75.4,78.4,74.6,72.2,91,79,56,30.00,29.88,12,1,13,0.00
2012-9-12,95.7,83.7,75.6,76.2,72.6,68.0,90,72,42,30.00,29.88,10,1,11,0.00
2012-9-13,88.3,81.4,76.3,77.0,73.8,71.6,89,78,62,29.97,29.88,13,1,15,0.00
2012-9-14,96.8,82.6,75.2,76.7,73.3,69.3,90,76,43,29.94,29.83,10,1,11,0.08
2012-9-15,92.8,82.0,76.3,77.1,74.7,72.4,90,80,55,29.94,29.85,9,0,10,0.00
2012-9-16,91.2,80.0,75.6,77.5,74.2,72.8,92,83,60,29.94,29.85,10,1,11,1.77
2012-9-17,93.2,80.3,73.8,78.6,74.6,71.5,94,84,61,29.91,29.80,10,1,13,0.28
2012-9-18,90.1,80.7,76.1,79.3,75.3,72.9,92,84,65,29.88,29.80,17,2,17,0.59
2012-9-19,93.4,81.5,74.3,77.6,73.6,70.7,94,79,50,29.94,29.83,8,0,9,0.04
2012-9-20,92.8,80.7,74.3,78.1,74.2,71.0,92,82,59,29.94,29.83,13,0,15,0.35
2012-9-21,90.5,76.7,73.4,79.0,72.9,70.6,92,88,65,29.91,29.80,7,0,8,0.71
2012-9-22,86.0,76.8,73.2,78.4,73.5,70.9,94,90,76,29.94,29.83,8,0,9,0.20
2012-9-23,92.8,78.1,73.4,77.8,73.2,66.0,94,86,48,29.97,29.88,5,0,6,0.00
2012-9-24,89.1,79.0,73.2,75.7,70.8,67.1,91,77,58,30.00,29.88,7,0,8,0.00
2012-9-25,90.5,79.8,73.0,73.2,69.4,64.1,81,71,54,29.97,29.88,7,0,7,0.00
2012-9-26,93.4,81.0,75.0,76.5,71.5,66.3,86,74,49,30.00,29.91,8,0,8,0.00
2012-9-27,99.9,82.7,73.6,77.8,71.8,66.7,91,72,39,30.00,29.85,8,0,8,0.00
2012-9-28,94.6,82.4,75.2,77.9,72.4,69.2,91,74,46,29.94,29.83,6,0,6,0.00
2012-9-29,93.6,82.0,74.3,76.6,73.4,71.0,92,77,54,29.88,29.74,8,1,9,0.00
2012-9-30,93.9,82.5,74.5,76.6,73.4,71.4,92,75,54,29.80,29.68,9,1,11,0.00
2012-10-1,91.0,81.5,76.5,78.4,75.2,72.5,92,82,60,29.74,29.65,13,2,13,0.12
2012-10-2,89.2,79.0,75.2,80.4,74.9,73.0,94,88,66,29.94,29.74,13,2,16,2.48
2012-10-3,93.2,81.4,75.6,80.0,75.5,73.2,94,83,62,30.06,29.91,9,1,12,0.12
2012-10-4,94.1,78.0,75.2,80.3,74.2,72.4,93,89,59,30.06,29.97,10,0,11,0.83
2012-10-5,92.7,81.2,75.0,79.9,75.1,71.5,94,83,56,30.00,29.83,9,0,9,0.00
2012-10-6,90.3,80.8,74.3,78.3,73.8,71.2,93,80,60,29.88,29.74,9,0,10,0.08
2012-10-7,91.9,79.7,74.7,78.1,74.1,72.4,93,84,58,29.88,29.80,5,0,8,0.67
2012-10-8,91.6,80.0,74.1,79.8,74.4,70.8,94,84,60,29.91,29.83,9,0,10,0.71
2012-10-9,92.7,80.1,72.3,77.5,73.5,70.2,93,81,56,29.94,29.85,3,0,6,0.00
2012-10-10,90.1,80.4,74.3,77.7,72.8,69.6,92,78,59,29.97,29.88,6,0,8,0.00
2012-10-11,89.6,78.6,70.2,70.2,67.0,63.7,87,70,47,30.03,29.94,8,0,9,0.00
2012-10-12,88.9,77.7,69.6,69.3,65.4,59.1,89,68,43,30.06,29.97,14,1,14,0.00
2012-10-13,90.0,77.8,70.2,69.5,66.5,63.7,85,70,45,30.03,29.91,10,1,13,0.00
2012-10-14,89.8,78.6,71.4,73.3,70.5,67.9,89,77,56,29.97,29.85,11,1,13,0.00
2012-10-15,92.1,79.9,73.6,77.7,73.6,70.8,92,82,56,29.85,29.71,8,0,8,0.04
2012-10-16,89.8,79.2,72.1,73.8,70.6,66.0,92,77,49,29.77,29.68,9,0,10,0.00
2012-10-17,85.6,77.3,72.1,76.9,71.1,68.9,92,82,64,29.80,29.71,10,0,11,0.00
2012-10-18,89.2,79.1,72.3,76.4,72.9,69.4,93,82,63,29.80,29.71,9,1,10,0.00
2012-10-19,89.8,80.4,75.0,78.0,73.8,70.7,93,81,61,29.80,29.71,10,1,12,0.00
2012-10-20,87.6,78.2,72.1,75.3,68.4,60.2,92,74,49,29.85,29.74,6,0,7,0.00
2012-10-21,87.1,74.9,65.7,62.9,57.5,53.2,70,56,39,29.91,29.83,8,0,10,0.00
2012-10-22,88.0,75.9,66.9,66.8,63.0,60.3,83,66,43,29.94,29.83,11,1,13,0.00
2012-10-23,90.0,77.5,68.4,69.1,65.5,62.4,84,68,42,29.91,29.80,11,1,15,0.00
2012-10-24,89.4,78.2,72.3,73.1,68.4,63.6,89,73,50,29.88,29.74,10,1,10,0.00
2012-10-25,83.3,77.1,73.0,73.8,70.6,68.3,89,81,68,29.77,29.65,11,1,13,0.00
2012-10-26,87.3,77.6,72.7,71.0,67.6,61.5,89,73,46,29.65,29.50,10,1,10,0.00
2012-10-27,85.5,76.1,70.5,65.3,63.0,60.1,78,65,43,29.65,29.50,13,1,13,0.00
2012-10-28,79.7,74.2,68.5,67.4,63.4,55.1,83,70,47,29.71,29.59,12,1,14,0.00
2012-10-29,73.2,66.7,61.3,56.1,50.1,44.2,72,56,43,29.80,29.68,10,1,15,0.00
2012-10-30,72.3,64.7,56.5,50.2,47.2,42.2,64,53,43,29.88,29.74,12,1,15,0.00
2012-10-31,77.0,65.6,57.0,57.6,53.1,49.3,85,65,45,29.97,29.88,6,0,9,0.00
2012-11-1,79.7,68.3,59.4,63.5,59.4,53.7,89,74,53,29.97,29.88,10,1,12,0.00
2012-11-2,80.4,68.8,61.3,62.7,57.5,49.2,90,71,37,30.00,29.91,6,0,8,0.00
2012-11-3,82.9,69.0,57.0,63.9,57.7,51.8,87,69,42,30.06,29.94,5,0,6,0.00
2012-11-4,82.9,70.2,61.3,65.2,59.6,53.3,92,72,41,30.03,29.88,8,0,9,0.00
2012-11-5,79.0,71.0,65.3,68.6,64.9,62.1,91,82,65,29.91,29.83,8,1,9,0.00
2012-11-6,76.3,68.6,64.4,69.7,65.0,61.1,93,89,70,29.85,29.74,10,0,10,0.28
2012-11-7,73.2,64.9,59.4,64.3,54.3,47.7,92,70,48,29.91,29.77,10,0,13,0.00
2012-11-8,71.6,61.9,54.3,51.8,43.7,37.9,76,53,36,30.06,29.88,6,0,10,0.00
2012-11-9,76.8,62.6,51.3,51.8,47.1,41.8,73,59,36,30.12,30.03,10,0,10,0.00
2012-11-10,78.1,66.9,58.5,56.5,53.0,50.3,79,63,43,30.18,30.06,12,1,12,0.00
2012-11-11,82.6,69.1,60.1,60.7,55.8,51.7,83,65,41,30.15,30.06,13,1,14,0.00
2012-11-12,81.3,71.5,64.0,68.2,63.1,57.9,89,76,56,30.12,30.03,12,1,14,0.00
2012-11-13,82.9,72.1,64.4,69.6,63.8,61.4,92,77,53,30.06,29.97,8,0,8,0.00
2012-11-14,82.9,70.2,65.3,68.8,64.0,62.4,92,82,54,30.06,29.94,6,0,8,0.00
2012-11-15,80.1,71.5,64.9,69.3,65.0,62.1,92,81,61,30.03,29.91,6,0,6,0.00
2012-11-16,73.0,67.5,63.9,63.5,60.9,58.9,86,80,70,30.03,29.94,8,0,8,0.00
2012-11-17,81.9,70.4,62.4,65.0,61.3,58.4,91,75,49,30.00,29.91,9,1,11,0.00
2012-11-18,77.4,68.1,64.2,65.2,61.8,57.9,89,81,62,30.06,29.97,8,1,8,0.00
2012-11-19,76.3,66.2,58.6,57.9,55.5,53.2,85,70,47,30.06,29.94,8,0,8,0.00
2012-11-20,76.6,65.6,60.4,62.0,58.2,54.4,87,77,57,29.97,29.85,5,0,7,0.00
2012-11-21,76.1,64.6,58.1,57.5,52.3,45.4,87,67,44,29.97,29.85,6,0,8,0.00
2012-11-22,74.8,62.1,53.2,50.0,44.5,35.5,80,55,33,30.06,29.94,8,0,12,0.00
2012-11-23,74.7,61.5,52.5,51.1,41.1,32.7,71,48,32,30.09,29.97,5,0,8,0.00
2012-11-24,75.4,61.2,51.4,58.9,50.2,43.8,87,69,44,30.03,29.91,8,0,8,0.00
2012-11-25,72.0,60.0,49.5,49.5,46.6,43.1,84,64,39,30.06,29.97,7,0,8,0.00
2012-11-26,80.8,63.6,50.4,60.6,53.2,44.3,89,71,45,30.09,29.97,9,0,9,0.00
2012-11-27,62.8,61.4,60.1,57.4,56.4,55.4,85,83,82,30.06,30.03,0,0,0,0.00
2012-11-29,78.3,71.8,64.4,60.2,58.8,56.5,76,64,51,30.12,30.03,9,2,10,0.00
2012-11-30,79.3,68.4,61.2,62.0,58.6,56.7,86,72,54,30.12,30.03,13,1,17,0.00
2012-12-1,81.3,68.8,59.4,61.5,58.1,54.5,86,70,45,30.12,30.03,9,1,11,0.00
2012-12-2,82.2,67.8,63.3,66.2,60.6,56.9,90,79,45,30.15,30.03,11,0,11,0.00
2012-12-3,82.4,69.9,62.6,66.0,57.3,49.2,92,67,39,30.15,30.03,11,1,11,0.00
2012-12-4,80.2,68.1,60.1,60.7,57.2,51.9,89,70,47,30.15,30.03,9,1,9,0.00
2012-12-5,77.2,67.5,59.7,65.4,61.0,54.0,88,80,64,30.06,29.91,6,0,9,0.00
2012-12-6,81.3,70.3,62.4,67.0,63.8,59.9,92,81,57,29.94,29.80,9,0,9,0.04
2012-12-7,81.3,70.7,63.0,69.3,64.4,60.6,94,82,57,29.88,29.80,9,1,9,0.04
2012-12-8,83.8,71.3,64.8,72.1,67.1,62.4,94,87,62,29.94,29.83,8,0,9,0.67
2012-12-9,82.6,72.2,64.6,73.9,67.9,62.5,95,87,67,29.97,29.88,6,0,8,0.00
2012-12-10,84.0,74.7,66.4,76.0,70.9,64.0,95,88,75,29.91,29.77,13,2,15,0.47
2012-12-11,78.1,74.1,71.4,73.6,71.7,69.9,95,92,85,31.01,29.83,10,1,13,0.08
2012-12-12,79.2,74.6,70.7,75.8,72.4,69.2,96,93,88,31.01,31.01,10,1,12,0.83
2012-12-13,74.7,70.0,64.4,71.2,64.9,58.5,95,84,69,31.01,31.01,10,0,10,0.00
2012-12-14,78.8,67.9,61.5,64.3,60.6,56.3,89,78,59,31.01,31.01,8,0,9,0.00
2012-12-15,78.8,68.9,62.2,67.7,62.1,59.3,93,80,56,31.01,31.01,8,0,9,0.00
2012-12-16,82.0,70.2,62.4,69.3,64.1,60.0,94,82,61,31.01,23.59,8,0,10,0.00
2012-12-17,69.3,67.3,65.5,66.2,64.4,62.8,93,90,89,17.72,17.72,0,0,0,0.00
2012-12-20,78.3,74.1,71.4,68.0,66.4,63.9,89,78,63,17.72,17.72,13,2,13,0.00
2012-12-21,65.3,57.9,51.6,41.6,40.0,38.1,66,52,40,17.72,17.72,4,0,10,0.00
2012-12-22,69.1,54.1,45.3,41.3,36.2,31.2,68,52,33,17.72,17.72,4,0,5,0.00
2012-12-23,70.2,52.8,40.1,50.2,39.6,33.2,78,62,46,17.72,17.72,6,0,6,0.00
2012-12-25,72.1,67.3,65.8,61.4,60.5,60.0,85,79,68,17.72,17.72,7,1,7,0.00
2012-12-26,79.0,68.6,61.0,71.8,64.1,54.8,95,86,78,17.72,17.72,20,2,20,0.00
2012-12-27,67.8,59.0,52.2,54.9,49.1,44.8,85,71,46,17.72,17.72,6,0,6,0.00
2012-12-28,74.1,62.3,49.1,67.6,57.5,44.8,95,84,71,17.72,17.72,9,0,10,0.00
2012-12-29,78.4,70.1,58.8,74.2,66.7,53.2,96,89,79,17.72,17.72,13,2,15,0.00
2012-12-30,63.9,55.6,46.6,53.2,43.7,37.0,82,66,46,17.72,17.72,10,1,11,0.00
2012-12-31,75.4,60.7,49.3,58.6,52.4,45.0,90,76,52,17.72,17.72,11,1,13,0.00
2013-1-1,78.8,67.3,58.1,62.0,59.3,54.5,91,77,53,17.72,17.72,11,1,11,0.00